sensor_id;sensor_type;location;lat;lon;timestamp;P1;durP1;ratioP1;P2;durP2;ratioP2
4616;SDS011;2321;42.704;23.384;2022-10-31T00:01:46;5.30;;;3.93;;
4616;SDS011;2321;42.704;23.384;2022-10-31T00:04:14;8.10;;;4.33;;
4616;SDS011;2321;42.704;23.384;2022-10-31T00:06:41;6.43;;;3.50;;
4616;SDS011;2321;42.704;23.384;2022-10-31T00:09:09;3.30;;;2.93;;
4616;SDS011;2321;42.704;23.384;2022-10-31T00:11:36;8.97;;;4.80;;
4616;SDS011;2321;42.704;23.384;2022-10-31T00:14:03;5.57;;;3.63;;
4616;SDS011;2321;42.704;23.384;2022-10-31T00:16:31;7.47;;;4.43;;
4616;SDS011;2321;42.704;23.384;2022-10-31T00:18:58;9.50;;;3.60;;
4616;SDS011;2321;42.704;23.384;2022-10-31T00:21:29;6.17;;;3.50;;
4616;SDS011;2321;42.704;23.384;2022-10-31T00:23:57;3.20;;;2.90;;
4616;SDS011;2321;42.704;23.384;2022-10-31T00:26:24;4.07;;;3.30;;
4616;SDS011;2321;42.704;23.384;2022-10-31T00:28:52;3.23;;;3.00;;
4616;SDS011;2321;42.704;23.384;2022-10-31T00:31:19;3.63;;;3.20;;
4616;SDS011;2321;42.704;23.384;2022-10-31T00:33:46;6.40;;;4.13;;
4616;SDS011;2321;42.704;23.384;2022-10-31T00:36:13;5.50;;;4.13;;
4616;SDS011;2321;42.704;23.384;2022-10-31T00:38:43;10.23;;;5.17;;
4616;SDS011;2321;42.704;23.384;2022-10-31T00:41:12;8.57;;;4.17;;
4616;SDS011;2321;42.704;23.384;2022-10-31T00:43:40;6.67;;;5.60;;
4616;SDS011;2321;42.704;23.384;2022-10-31T00:46:07;8.70;;;4.27;;
4616;SDS011;2321;42.704;23.384;2022-10-31T00:48:34;7.23;;;3.63;;
4616;SDS011;2321;42.704;23.384;2022-10-31T00:51:01;6.43;;;3.63;;
4616;SDS011;2321;42.704;23.384;2022-10-31T00:53:28;6.87;;;5.43;;
4616;SDS011;2321;42.704;23.384;2022-10-31T00:55:56;20.47;;;6.10;;
4616;SDS011;2321;42.704;23.384;2022-10-31T00:58:23;10.30;;;6.40;;
4616;SDS011;2321;42.704;23.384;2022-10-31T01:00:50;7.67;;;4.87;;
4616;SDS011;2321;42.704;23.384;2022-10-31T01:03:20;3.53;;;3.00;;
4616;SDS011;2321;42.704;23.384;2022-10-31T01:05:55;9.93;;;4.50;;
4616;SDS011;2321;42.704;23.384;2022-10-31T01:08:23;6.10;;;4.00;;
4616;SDS011;2321;42.704;23.384;2022-10-31T01:10:59;5.00;;;3.30;;
4616;SDS011;2321;42.704;23.384;2022-10-31T01:13:27;5.43;;;4.23;;
4616;SDS011;2321;42.704;23.384;2022-10-31T01:15:54;5.83;;;4.10;;
4616;SDS011;2321;42.704;23.384;2022-10-31T01:18:21;7.27;;;5.20;;
4616;SDS011;2321;42.704;23.384;2022-10-31T01:20:56;3.40;;;3.17;;
4616;SDS011;2321;42.704;23.384;2022-10-31T01:23:23;3.53;;;3.30;;
4616;SDS011;2321;42.704;23.384;2022-10-31T01:25:59;16.40;;;5.27;;
4616;SDS011;2321;42.704;23.384;2022-10-31T01:28:27;4.83;;;4.37;;
4616;SDS011;2321;42.704;23.384;2022-10-31T01:30:54;3.80;;;3.50;;
4616;SDS011;2321;42.704;23.384;2022-10-31T01:33:21;8.07;;;3.67;;
4616;SDS011;2321;42.704;23.384;2022-10-31T01:35:49;6.03;;;4.10;;
4616;SDS011;2321;42.704;23.384;2022-10-31T01:38:15;3.80;;;3.50;;
4616;SDS011;2321;42.704;23.384;2022-10-31T01:40:42;4.60;;;3.87;;
4616;SDS011;2321;42.704;23.384;2022-10-31T01:43:13;11.93;;;4.63;;
4616;SDS011;2321;42.704;23.384;2022-10-31T01:45:40;14.90;;;4.47;;
4616;SDS011;2321;42.704;23.384;2022-10-31T01:48:10;10.90;;;5.10;;
4616;SDS011;2321;42.704;23.384;2022-10-31T01:50:40;29.13;;;6.70;;
4616;SDS011;2321;42.704;23.384;2022-10-31T01:53:09;7.77;;;3.77;;
4616;SDS011;2321;42.704;23.384;2022-10-31T01:55:38;2.80;;;2.60;;
4616;SDS011;2321;42.704;23.384;2022-10-31T01:58:08;28.57;;;5.00;;
4616;SDS011;2321;42.704;23.384;2022-10-31T02:00:39;3.17;;;2.90;;
4616;SDS011;2321;42.704;23.384;2022-10-31T02:03:11;3.47;;;3.20;;
4616;SDS011;2321;42.704;23.384;2022-10-31T02:05:38;5.97;;;3.90;;
4616;SDS011;2321;42.704;23.384;2022-10-31T02:08:06;14.90;;;5.20;;
4616;SDS011;2321;42.704;23.384;2022-10-31T02:10:39;4.97;;;3.50;;
4616;SDS011;2321;42.704;23.384;2022-10-31T02:13:07;5.77;;;3.77;;
4616;SDS011;2321;42.704;23.384;2022-10-31T02:15:35;5.97;;;4.40;;
4616;SDS011;2321;42.704;23.384;2022-10-31T02:18:04;5.67;;;4.77;;
4616;SDS011;2321;42.704;23.384;2022-10-31T02:20:32;6.27;;;2.97;;
4616;SDS011;2321;42.704;23.384;2022-10-31T02:23:20;6.93;;;5.03;;
4616;SDS011;2321;42.704;23.384;2022-10-31T02:26:07;6.37;;;4.57;;
4616;SDS011;2321;42.704;23.384;2022-10-31T02:28:52;5.47;;;4.60;;
4616;SDS011;2321;42.704;23.384;2022-10-31T02:31:41;3.50;;;3.20;;
4616;SDS011;2321;42.704;23.384;2022-10-31T02:34:15;7.23;;;3.97;;
4616;SDS011;2321;42.704;23.384;2022-10-31T02:36:47;3.90;;;3.70;;
4616;SDS011;2321;42.704;23.384;2022-10-31T02:39:21;4.90;;;4.10;;
4616;SDS011;2321;42.704;23.384;2022-10-31T02:41:52;2.77;;;2.57;;
4616;SDS011;2321;42.704;23.384;2022-10-31T02:44:29;6.20;;;4.67;;
4616;SDS011;2321;42.704;23.384;2022-10-31T02:47:05;5.03;;;4.10;;
4616;SDS011;2321;42.704;23.384;2022-10-31T02:49:38;6.90;;;5.40;;
4616;SDS011;2321;42.704;23.384;2022-10-31T02:52:14;4.07;;;3.40;;
4616;SDS011;2321;42.704;23.384;2022-10-31T02:54:44;3.60;;;3.37;;
4616;SDS011;2321;42.704;23.384;2022-10-31T02:57:12;3.83;;;3.43;;
4616;SDS011;2321;42.704;23.384;2022-10-31T02:59:41;8.50;;;3.47;;
4616;SDS011;2321;42.704;23.384;2022-10-31T03:02:17;4.23;;;3.87;;
4616;SDS011;2321;42.704;23.384;2022-10-31T03:04:58;8.23;;;2.90;;
4616;SDS011;2321;42.704;23.384;2022-10-31T03:07:39;5.50;;;4.97;;
4616;SDS011;2321;42.704;23.384;2022-10-31T03:10:13;2.80;;;2.60;;
4616;SDS011;2321;42.704;23.384;2022-10-31T03:12:48;10.60;;;4.70;;
4616;SDS011;2321;42.704;23.384;2022-10-31T03:15:24;5.10;;;2.43;;
4616;SDS011;2321;42.704;23.384;2022-10-31T03:17:56;4.00;;;3.70;;
4616;SDS011;2321;42.704;23.384;2022-10-31T03:20:28;4.17;;;3.80;;
4616;SDS011;2321;42.704;23.384;2022-10-31T03:22:59;4.77;;;3.27;;
4616;SDS011;2321;42.704;23.384;2022-10-31T03:25:28;2.87;;;2.77;;
4616;SDS011;2321;42.704;23.384;2022-10-31T03:27:57;5.57;;;3.30;;
4616;SDS011;2321;42.704;23.384;2022-10-31T03:30:25;7.27;;;3.23;;
4616;SDS011;2321;42.704;23.384;2022-10-31T03:32:54;3.27;;;3.07;;
4616;SDS011;2321;42.704;23.384;2022-10-31T03:35:25;3.37;;;3.13;;
4616;SDS011;2321;42.704;23.384;2022-10-31T03:37:55;6.80;;;4.73;;
4616;SDS011;2321;42.704;23.384;2022-10-31T03:40:23;23.63;;;3.87;;
4616;SDS011;2321;42.704;23.384;2022-10-31T03:42:54;14.83;;;4.90;;
4616;SDS011;2321;42.704;23.384;2022-10-31T03:45:25;3.53;;;3.20;;
4616;SDS011;2321;42.704;23.384;2022-10-31T03:47:56;4.57;;;3.17;;
4616;SDS011;2321;42.704;23.384;2022-10-31T03:50:25;3.70;;;3.50;;
4616;SDS011;2321;42.704;23.384;2022-10-31T03:52:58;6.53;;;5.03;;
4616;SDS011;2321;42.704;23.384;2022-10-31T03:55:31;9.77;;;4.10;;
4616;SDS011;2321;42.704;23.384;2022-10-31T03:58:06;6.63;;;4.37;;
4616;SDS011;2321;42.704;23.384;2022-10-31T04:00:37;5.70;;;4.47;;
4616;SDS011;2321;42.704;23.384;2022-10-31T04:03:10;13.43;;;4.57;;
4616;SDS011;2321;42.704;23.384;2022-10-31T04:05:41;9.37;;;3.87;;
4616;SDS011;2321;42.704;23.384;2022-10-31T04:08:12;4.80;;;3.93;;
4616;SDS011;2321;42.704;23.384;2022-10-31T04:10:42;11.67;;;4.53;;
4616;SDS011;2321;42.704;23.384;2022-10-31T04:13:13;6.60;;;3.40;;
4616;SDS011;2321;42.704;23.384;2022-10-31T04:15:43;5.50;;;4.20;;
4616;SDS011;2321;42.704;23.384;2022-10-31T04:18:13;6.07;;;3.77;;
4616;SDS011;2321;42.704;23.384;2022-10-31T04:20:40;13.33;;;4.17;;
4616;SDS011;2321;42.704;23.384;2022-10-31T04:23:11;4.83;;;3.23;;
4616;SDS011;2321;42.704;23.384;2022-10-31T04:25:44;4.80;;;3.63;;
4616;SDS011;2321;42.704;23.384;2022-10-31T04:28:11;5.13;;;3.80;;
4616;SDS011;2321;42.704;23.384;2022-10-31T04:30:38;8.00;;;4.40;;
4616;SDS011;2321;42.704;23.384;2022-10-31T04:33:05;5.70;;;4.00;;
4616;SDS011;2321;42.704;23.384;2022-10-31T04:35:33;12.70;;;3.83;;
4616;SDS011;2321;42.704;23.384;2022-10-31T04:38:00;3.90;;;3.60;;
4616;SDS011;2321;42.704;23.384;2022-10-31T04:40:27;6.40;;;4.30;;
4616;SDS011;2321;42.704;23.384;2022-10-31T04:42:54;4.97;;;4.17;;
4616;SDS011;2321;42.704;23.384;2022-10-31T04:45:21;6.03;;;3.73;;
4616;SDS011;2321;42.704;23.384;2022-10-31T04:47:48;10.80;;;5.77;;
4616;SDS011;2321;42.704;23.384;2022-10-31T04:50:15;5.23;;;3.17;;
4616;SDS011;2321;42.704;23.384;2022-10-31T04:52:43;18.63;;;2.97;;
4616;SDS011;2321;42.704;23.384;2022-10-31T04:55:12;37.03;;;6.67;;
4616;SDS011;2321;42.704;23.384;2022-10-31T04:57:42;11.67;;;6.23;;
4616;SDS011;2321;42.704;23.384;2022-10-31T05:00:11;9.67;;;5.00;;
4616;SDS011;2321;42.704;23.384;2022-10-31T05:02:42;6.70;;;3.77;;
4616;SDS011;2321;42.704;23.384;2022-10-31T05:05:10;6.17;;;4.53;;
4616;SDS011;2321;42.704;23.384;2022-10-31T05:07:40;9.10;;;4.30;;
4616;SDS011;2321;42.704;23.384;2022-10-31T05:10:11;3.67;;;3.37;;
4616;SDS011;2321;42.704;23.384;2022-10-31T05:12:44;7.10;;;4.83;;
4616;SDS011;2321;42.704;23.384;2022-10-31T05:15:13;5.57;;;4.53;;
4616;SDS011;2321;42.704;23.384;2022-10-31T05:17:40;8.83;;;6.47;;
4616;SDS011;2321;42.704;23.384;2022-10-31T05:20:07;21.33;;;4.80;;
4616;SDS011;2321;42.704;23.384;2022-10-31T05:22:35;6.83;;;4.57;;
4616;SDS011;2321;42.704;23.384;2022-10-31T05:25:04;6.00;;;5.30;;
4616;SDS011;2321;42.704;23.384;2022-10-31T05:27:31;9.80;;;4.90;;
4616;SDS011;2321;42.704;23.384;2022-10-31T05:29:58;11.53;;;4.47;;
4616;SDS011;2321;42.704;23.384;2022-10-31T05:32:25;6.37;;;4.60;;
4616;SDS011;2321;42.704;23.384;2022-10-31T05:34:52;6.67;;;4.93;;
4616;SDS011;2321;42.704;23.384;2022-10-31T05:37:19;4.90;;;4.27;;
4616;SDS011;2321;42.704;23.384;2022-10-31T05:39:45;10.80;;;5.70;;
4616;SDS011;2321;42.704;23.384;2022-10-31T05:42:14;9.30;;;4.00;;
4616;SDS011;2321;42.704;23.384;2022-10-31T05:44:41;12.17;;;4.20;;
4616;SDS011;2321;42.704;23.384;2022-10-31T05:47:07;4.20;;;3.80;;
4616;SDS011;2321;42.704;23.384;2022-10-31T05:49:34;4.53;;;3.90;;
4616;SDS011;2321;42.704;23.384;2022-10-31T05:52:01;5.40;;;4.90;;
4616;SDS011;2321;42.704;23.384;2022-10-31T05:54:28;4.00;;;3.70;;
4616;SDS011;2321;42.704;23.384;2022-10-31T05:56:55;6.33;;;3.63;;
4616;SDS011;2321;42.704;23.384;2022-10-31T05:59:23;12.60;;;5.00;;
4616;SDS011;2321;42.704;23.384;2022-10-31T06:01:50;4.57;;;4.27;;
4616;SDS011;2321;42.704;23.384;2022-10-31T06:04:17;3.57;;;3.37;;
4616;SDS011;2321;42.704;23.384;2022-10-31T06:06:44;10.10;;;5.23;;
4616;SDS011;2321;42.704;23.384;2022-10-31T06:09:11;6.40;;;5.03;;
4616;SDS011;2321;42.704;23.384;2022-10-31T06:11:38;6.40;;;4.70;;
4616;SDS011;2321;42.704;23.384;2022-10-31T06:14:05;10.10;;;3.97;;
4616;SDS011;2321;42.704;23.384;2022-10-31T06:16:34;6.07;;;5.00;;
4616;SDS011;2321;42.704;23.384;2022-10-31T06:19:01;3.90;;;3.70;;
4616;SDS011;2321;42.704;23.384;2022-10-31T06:21:28;13.20;;;5.17;;
4616;SDS011;2321;42.704;23.384;2022-10-31T06:23:54;7.67;;;5.57;;
4616;SDS011;2321;42.704;23.384;2022-10-31T06:26:21;5.37;;;4.70;;
4616;SDS011;2321;42.704;23.384;2022-10-31T06:28:48;7.17;;;4.30;;
4616;SDS011;2321;42.704;23.384;2022-10-31T06:31:15;5.20;;;4.30;;
4616;SDS011;2321;42.704;23.384;2022-10-31T06:33:43;7.47;;;5.27;;
4616;SDS011;2321;42.704;23.384;2022-10-31T06:36:10;6.33;;;4.00;;
4616;SDS011;2321;42.704;23.384;2022-10-31T06:38:37;7.47;;;5.20;;
4616;SDS011;2321;42.704;23.384;2022-10-31T06:41:04;5.10;;;4.70;;
4616;SDS011;2321;42.704;23.384;2022-10-31T06:43:32;5.10;;;4.50;;
4616;SDS011;2321;42.704;23.384;2022-10-31T06:46:01;7.03;;;3.80;;
4616;SDS011;2321;42.704;23.384;2022-10-31T06:48:29;8.13;;;4.73;;
4616;SDS011;2321;42.704;23.384;2022-10-31T06:50:58;5.43;;;4.40;;
4616;SDS011;2321;42.704;23.384;2022-10-31T06:53:25;5.20;;;4.67;;
4616;SDS011;2321;42.704;23.384;2022-10-31T06:55:54;9.33;;;3.87;;
4616;SDS011;2321;42.704;23.384;2022-10-31T06:58:22;8.07;;;5.17;;
4616;SDS011;2321;42.704;23.384;2022-10-31T07:00:48;4.63;;;3.90;;
4616;SDS011;2321;42.704;23.384;2022-10-31T07:03:15;4.63;;;4.20;;
4616;SDS011;2321;42.704;23.384;2022-10-31T07:05:43;10.60;;;4.10;;
4616;SDS011;2321;42.704;23.384;2022-10-31T07:08:11;5.03;;;4.43;;
4616;SDS011;2321;42.704;23.384;2022-10-31T07:10:40;10.07;;;5.27;;
4616;SDS011;2321;42.704;23.384;2022-10-31T07:13:09;7.73;;;5.50;;
4616;SDS011;2321;42.704;23.384;2022-10-31T07:15:38;14.43;;;4.70;;
4616;SDS011;2321;42.704;23.384;2022-10-31T07:18:06;4.60;;;3.53;;
4616;SDS011;2321;42.704;23.384;2022-10-31T07:20:35;11.60;;;5.70;;
4616;SDS011;2321;42.704;23.384;2022-10-31T07:23:02;13.33;;;6.93;;
4616;SDS011;2321;42.704;23.384;2022-10-31T07:25:31;5.47;;;4.43;;
4616;SDS011;2321;42.704;23.384;2022-10-31T07:27:58;12.40;;;7.53;;
4616;SDS011;2321;42.704;23.384;2022-10-31T07:30:24;6.70;;;5.70;;
4616;SDS011;2321;42.704;23.384;2022-10-31T07:32:51;15.40;;;7.67;;
4616;SDS011;2321;42.704;23.384;2022-10-31T07:35:19;6.17;;;5.63;;
4616;SDS011;2321;42.704;23.384;2022-10-31T07:37:47;7.67;;;4.70;;
4616;SDS011;2321;42.704;23.384;2022-10-31T07:40:15;10.57;;;5.40;;
4616;SDS011;2321;42.704;23.384;2022-10-31T07:42:45;11.90;;;4.90;;
4616;SDS011;2321;42.704;23.384;2022-10-31T07:45:15;5.80;;;4.57;;
4616;SDS011;2321;42.704;23.384;2022-10-31T07:47:43;8.10;;;4.77;;
4616;SDS011;2321;42.704;23.384;2022-10-31T07:50:12;15.37;;;4.93;;
4616;SDS011;2321;42.704;23.384;2022-10-31T07:52:40;8.90;;;5.87;;
4616;SDS011;2321;42.704;23.384;2022-10-31T07:55:07;9.30;;;4.50;;
4616;SDS011;2321;42.704;23.384;2022-10-31T07:57:35;8.20;;;5.20;;
4616;SDS011;2321;42.704;23.384;2022-10-31T08:00:04;5.83;;;5.13;;
4616;SDS011;2321;42.704;23.384;2022-10-31T08:02:32;6.37;;;5.73;;
4616;SDS011;2321;42.704;23.384;2022-10-31T08:04:59;5.90;;;4.90;;
4616;SDS011;2321;42.704;23.384;2022-10-31T08:07:27;15.23;;;6.80;;
4616;SDS011;2321;42.704;23.384;2022-10-31T08:09:54;16.03;;;6.13;;
4616;SDS011;2321;42.704;23.384;2022-10-31T08:12:21;5.60;;;5.07;;
4616;SDS011;2321;42.704;23.384;2022-10-31T08:14:48;8.63;;;5.50;;
4616;SDS011;2321;42.704;23.384;2022-10-31T08:17:17;7.30;;;5.40;;
4616;SDS011;2321;42.704;23.384;2022-10-31T08:19:44;10.70;;;6.77;;
4616;SDS011;2321;42.704;23.384;2022-10-31T08:22:11;8.00;;;5.53;;
4616;SDS011;2321;42.704;23.384;2022-10-31T08:24:37;9.60;;;5.50;;
4616;SDS011;2321;42.704;23.384;2022-10-31T08:27:04;10.27;;;5.63;;
4616;SDS011;2321;42.704;23.384;2022-10-31T08:29:31;10.83;;;6.07;;
4616;SDS011;2321;42.704;23.384;2022-10-31T08:31:58;12.43;;;6.97;;
4616;SDS011;2321;42.704;23.384;2022-10-31T08:34:26;8.60;;;5.20;;
4616;SDS011;2321;42.704;23.384;2022-10-31T08:36:53;12.10;;;7.43;;
4616;SDS011;2321;42.704;23.384;2022-10-31T08:39:20;15.63;;;7.20;;
4616;SDS011;2321;42.704;23.384;2022-10-31T08:41:47;7.90;;;6.27;;
4616;SDS011;2321;42.704;23.384;2022-10-31T08:44:14;6.43;;;5.07;;
4616;SDS011;2321;42.704;23.384;2022-10-31T08:46:41;8.67;;;6.03;;
4616;SDS011;2321;42.704;23.384;2022-10-31T08:49:08;9.37;;;6.83;;
4616;SDS011;2321;42.704;23.384;2022-10-31T08:51:36;7.10;;;5.90;;
4616;SDS011;2321;42.704;23.384;2022-10-31T08:54:03;15.20;;;6.90;;
4616;SDS011;2321;42.704;23.384;2022-10-31T08:56:30;11.27;;;6.07;;
4616;SDS011;2321;42.704;23.384;2022-10-31T08:58:57;5.67;;;4.83;;
4616;SDS011;2321;42.704;23.384;2022-10-31T09:01:24;10.83;;;6.33;;
4616;SDS011;2321;42.704;23.384;2022-10-31T09:03:51;14.80;;;6.30;;
4616;SDS011;2321;42.704;23.384;2022-10-31T09:06:18;12.40;;;6.70;;
4616;SDS011;2321;42.704;23.384;2022-10-31T09:08:46;11.93;;;5.80;;
4616;SDS011;2321;42.704;23.384;2022-10-31T09:11:13;10.27;;;5.57;;
4616;SDS011;2321;42.704;23.384;2022-10-31T09:13:40;7.67;;;5.30;;
4616;SDS011;2321;42.704;23.384;2022-10-31T09:16:07;7.83;;;5.47;;
4616;SDS011;2321;42.704;23.384;2022-10-31T09:18:34;10.80;;;5.50;;
4616;SDS011;2321;42.704;23.384;2022-10-31T09:21:00;9.30;;;5.60;;
4616;SDS011;2321;42.704;23.384;2022-10-31T09:23:28;12.13;;;6.43;;
4616;SDS011;2321;42.704;23.384;2022-10-31T09:25:58;7.77;;;5.20;;
4616;SDS011;2321;42.704;23.384;2022-10-31T09:28:27;8.20;;;5.33;;
4616;SDS011;2321;42.704;23.384;2022-10-31T09:30:54;8.33;;;5.13;;
4616;SDS011;2321;42.704;23.384;2022-10-31T09:33:21;5.67;;;4.40;;
4616;SDS011;2321;42.704;23.384;2022-10-31T09:35:48;5.57;;;5.07;;
4616;SDS011;2321;42.704;23.384;2022-10-31T09:38:16;6.03;;;4.40;;
4616;SDS011;2321;42.704;23.384;2022-10-31T09:40:46;10.97;;;5.70;;
4616;SDS011;2321;42.704;23.384;2022-10-31T09:43:18;5.17;;;4.13;;
4616;SDS011;2321;42.704;23.384;2022-10-31T09:45:53;5.53;;;4.50;;
4616;SDS011;2321;42.704;23.384;2022-10-31T09:51:17;8.73;;;5.10;;
4616;SDS011;2321;42.704;23.384;2022-10-31T09:53:48;5.50;;;4.93;;
4616;SDS011;2321;42.704;23.384;2022-10-31T09:56:19;13.77;;;5.30;;
4616;SDS011;2321;42.704;23.384;2022-10-31T09:58:51;5.27;;;4.67;;
4616;SDS011;2321;42.704;23.384;2022-10-31T10:01:28;8.47;;;5.47;;
4616;SDS011;2321;42.704;23.384;2022-10-31T10:04:00;6.80;;;4.97;;
4616;SDS011;2321;42.704;23.384;2022-10-31T10:06:32;6.07;;;5.10;;
4616;SDS011;2321;42.704;23.384;2022-10-31T10:09:02;10.73;;;5.30;;
4616;SDS011;2321;42.704;23.384;2022-10-31T10:11:33;4.50;;;4.03;;
4616;SDS011;2321;42.704;23.384;2022-10-31T10:14:24;7.23;;;5.60;;
4616;SDS011;2321;42.704;23.384;2022-10-31T10:17:13;19.30;;;4.70;;
4616;SDS011;2321;42.704;23.384;2022-10-31T10:19:59;10.63;;;4.87;;
4616;SDS011;2321;42.704;23.384;2022-10-31T10:22:47;9.27;;;5.17;;
4616;SDS011;2321;42.704;23.384;2022-10-31T10:25:21;7.63;;;4.60;;
4616;SDS011;2321;42.704;23.384;2022-10-31T10:27:52;8.97;;;5.20;;
4616;SDS011;2321;42.704;23.384;2022-10-31T10:30:28;6.00;;;4.70;;
4616;SDS011;2321;42.704;23.384;2022-10-31T10:33:02;8.07;;;4.33;;
4616;SDS011;2321;42.704;23.384;2022-10-31T10:35:34;6.70;;;4.43;;
4616;SDS011;2321;42.704;23.384;2022-10-31T10:38:09;6.93;;;4.67;;
4616;SDS011;2321;42.704;23.384;2022-10-31T10:40:40;7.27;;;4.30;;
4616;SDS011;2321;42.704;23.384;2022-10-31T10:43:16;5.87;;;4.23;;
4616;SDS011;2321;42.704;23.384;2022-10-31T10:45:53;3.67;;;3.37;;
4616;SDS011;2321;42.704;23.384;2022-10-31T10:48:54;4.20;;;3.03;;
4616;SDS011;2321;42.704;23.384;2022-10-31T10:51:27;4.80;;;3.43;;
4616;SDS011;2321;42.704;23.384;2022-10-31T10:54:09;4.40;;;3.10;;
4616;SDS011;2321;42.704;23.384;2022-10-31T10:57:05;6.67;;;3.40;;
4616;SDS011;2321;42.704;23.384;2022-10-31T10:59:38;3.80;;;3.47;;
4616;SDS011;2321;42.704;23.384;2022-10-31T11:02:17;3.63;;;3.10;;
4616;SDS011;2321;42.704;23.384;2022-10-31T11:04:47;5.80;;;3.20;;
4616;SDS011;2321;42.704;23.384;2022-10-31T11:07:17;10.03;;;3.73;;
4616;SDS011;2321;42.704;23.384;2022-10-31T11:09:44;9.80;;;4.20;;
4616;SDS011;2321;42.704;23.384;2022-10-31T11:12:15;3.97;;;2.83;;
4616;SDS011;2321;42.704;23.384;2022-10-31T11:14:46;7.33;;;2.67;;
4616;SDS011;2321;42.704;23.384;2022-10-31T11:17:19;6.50;;;2.77;;
4616;SDS011;2321;42.704;23.384;2022-10-31T11:19:59;5.20;;;2.53;;
4616;SDS011;2321;42.704;23.384;2022-10-31T11:22:30;7.03;;;3.30;;
4616;SDS011;2321;42.704;23.384;2022-10-31T11:24:58;3.20;;;2.93;;
4616;SDS011;2321;42.704;23.384;2022-10-31T11:27:25;3.87;;;2.70;;
4616;SDS011;2321;42.704;23.384;2022-10-31T11:29:52;6.00;;;2.80;;
4616;SDS011;2321;42.704;23.384;2022-10-31T11:32:32;5.77;;;2.70;;
4616;SDS011;2321;42.704;23.384;2022-10-31T11:35:00;2.80;;;1.97;;
4616;SDS011;2321;42.704;23.384;2022-10-31T11:37:35;6.20;;;2.60;;
4616;SDS011;2321;42.704;23.384;2022-10-31T11:40:15;2.27;;;2.17;;
4616;SDS011;2321;42.704;23.384;2022-10-31T11:42:44;2.07;;;1.97;;
4616;SDS011;2321;42.704;23.384;2022-10-31T11:45:14;1.90;;;1.80;;
4616;SDS011;2321;42.704;23.384;2022-10-31T11:47:44;2.63;;;2.53;;
4616;SDS011;2321;42.704;23.384;2022-10-31T11:50:18;3.37;;;2.70;;
4616;SDS011;2321;42.704;23.384;2022-10-31T11:52:47;2.87;;;2.13;;
4616;SDS011;2321;42.704;23.384;2022-10-31T11:55:16;1.93;;;1.90;;
4616;SDS011;2321;42.704;23.384;2022-10-31T11:57:55;2.03;;;1.93;;
4616;SDS011;2321;42.704;23.384;2022-10-31T12:00:24;19.73;;;3.00;;
4616;SDS011;2321;42.704;23.384;2022-10-31T12:03:09;2.93;;;2.37;;
4616;SDS011;2321;42.704;23.384;2022-10-31T12:05:40;3.17;;;2.50;;
4616;SDS011;2321;42.704;23.384;2022-10-31T12:08:09;2.30;;;1.90;;
4616;SDS011;2321;42.704;23.384;2022-10-31T12:10:44;3.53;;;2.27;;
4616;SDS011;2321;42.704;23.384;2022-10-31T12:13:28;6.67;;;2.57;;
4616;SDS011;2321;42.704;23.384;2022-10-31T12:16:00;2.50;;;2.40;;
4616;SDS011;2321;42.704;23.384;2022-10-31T12:18:49;2.13;;;1.80;;
4616;SDS011;2321;42.704;23.384;2022-10-31T12:21:28;3.07;;;2.40;;
4616;SDS011;2321;42.704;23.384;2022-10-31T12:24:27;2.37;;;2.17;;
4616;SDS011;2321;42.704;23.384;2022-10-31T12:27:09;7.60;;;2.10;;
4616;SDS011;2321;42.704;23.384;2022-10-31T12:29:55;5.13;;;1.90;;
4616;SDS011;2321;42.704;23.384;2022-10-31T12:32:34;6.43;;;2.40;;
4616;SDS011;2321;42.704;23.384;2022-10-31T12:35:21;1.83;;;1.73;;
4616;SDS011;2321;42.704;23.384;2022-10-31T12:38:05;4.43;;;2.40;;
4616;SDS011;2321;42.704;23.384;2022-10-31T12:40:48;2.67;;;2.20;;
4616;SDS011;2321;42.704;23.384;2022-10-31T12:43:30;1.93;;;1.83;;
4616;SDS011;2321;42.704;23.384;2022-10-31T12:46:07;1.90;;;1.80;;
4616;SDS011;2321;42.704;23.384;2022-10-31T12:48:52;2.33;;;2.23;;
4616;SDS011;2321;42.704;23.384;2022-10-31T12:51:43;2.23;;;2.13;;
4616;SDS011;2321;42.704;23.384;2022-10-31T12:54:22;2.10;;;1.90;;
4616;SDS011;2321;42.704;23.384;2022-10-31T12:57:01;2.23;;;2.03;;
4616;SDS011;2321;42.704;23.384;2022-10-31T12:59:40;2.43;;;2.33;;
4616;SDS011;2321;42.704;23.384;2022-10-31T13:02:12;3.40;;;2.33;;
4616;SDS011;2321;42.704;23.384;2022-10-31T13:04:46;4.13;;;2.13;;
4616;SDS011;2321;42.704;23.384;2022-10-31T13:07:19;3.90;;;2.10;;
4616;SDS011;2321;42.704;23.384;2022-10-31T13:09:52;4.40;;;2.10;;
4616;SDS011;2321;42.704;23.384;2022-10-31T13:12:23;2.43;;;2.20;;
4616;SDS011;2321;42.704;23.384;2022-10-31T13:14:53;5.47;;;2.00;;
4616;SDS011;2321;42.704;23.384;2022-10-31T13:17:25;2.20;;;2.10;;
4616;SDS011;2321;42.704;23.384;2022-10-31T13:19:56;2.40;;;2.20;;
4616;SDS011;2321;42.704;23.384;2022-10-31T13:22:33;2.40;;;2.20;;
4616;SDS011;2321;42.704;23.384;2022-10-31T13:25:02;4.23;;;2.00;;
4616;SDS011;2321;42.704;23.384;2022-10-31T13:27:41;2.07;;;1.97;;
4616;SDS011;2321;42.704;23.384;2022-10-31T13:30:14;9.67;;;1.93;;
4616;SDS011;2321;42.704;23.384;2022-10-31T13:32:43;2.47;;;2.20;;
4616;SDS011;2321;42.704;23.384;2022-10-31T13:35:15;2.10;;;1.97;;
4616;SDS011;2321;42.704;23.384;2022-10-31T13:37:49;6.50;;;2.57;;
4616;SDS011;2321;42.704;23.384;2022-10-31T13:40:25;1.90;;;1.80;;
4616;SDS011;2321;42.704;23.384;2022-10-31T13:43:02;2.13;;;2.03;;
4616;SDS011;2321;42.704;23.384;2022-10-31T13:45:47;4.53;;;2.43;;
4616;SDS011;2321;42.704;23.384;2022-10-31T13:48:28;6.60;;;2.13;;
4616;SDS011;2321;42.704;23.384;2022-10-31T13:51:04;2.00;;;1.90;;
4616;SDS011;2321;42.704;23.384;2022-10-31T13:53:44;2.67;;;2.30;;
4616;SDS011;2321;42.704;23.384;2022-10-31T13:56:23;12.07;;;2.40;;
4616;SDS011;2321;42.704;23.384;2022-10-31T14:01:46;3.07;;;2.77;;
4616;SDS011;2321;42.704;23.384;2022-10-31T14:04:18;2.27;;;2.03;;
4616;SDS011;2321;42.704;23.384;2022-10-31T14:06:55;2.13;;;2.03;;
4616;SDS011;2321;42.704;23.384;2022-10-31T14:09:28;2.67;;;2.53;;
4616;SDS011;2321;42.704;23.384;2022-10-31T14:11:58;5.80;;;2.40;;
4616;SDS011;2321;42.704;23.384;2022-10-31T14:14:30;3.07;;;2.47;;
4616;SDS011;2321;42.704;23.384;2022-10-31T14:17:01;5.37;;;2.47;;
4616;SDS011;2321;42.704;23.384;2022-10-31T14:19:29;2.27;;;2.07;;
4616;SDS011;2321;42.704;23.384;2022-10-31T14:21:56;2.20;;;2.10;;
4616;SDS011;2321;42.704;23.384;2022-10-31T14:30:14;7.83;;;2.53;;
4616;SDS011;2321;42.704;23.384;2022-10-31T14:32:42;2.30;;;2.03;;
4616;SDS011;2321;42.704;23.384;2022-10-31T14:35:13;2.77;;;1.90;;
4616;SDS011;2321;42.704;23.384;2022-10-31T14:37:52;3.33;;;1.97;;
4616;SDS011;2321;42.704;23.384;2022-10-31T14:40:39;2.33;;;2.13;;
4616;SDS011;2321;42.704;23.384;2022-10-31T14:43:23;6.53;;;2.47;;
4616;SDS011;2321;42.704;23.384;2022-10-31T14:46:18;1.80;;;1.70;;
4616;SDS011;2321;42.704;23.384;2022-10-31T14:49:04;2.80;;;1.83;;
4616;SDS011;2321;42.704;23.384;2022-10-31T14:51:48;2.43;;;1.80;;
4616;SDS011;2321;42.704;23.384;2022-10-31T14:54:17;5.10;;;2.20;;
4616;SDS011;2321;42.704;23.384;2022-10-31T14:56:51;1.63;;;1.53;;
4616;SDS011;2321;42.704;23.384;2022-10-31T14:59:24;10.67;;;2.30;;
4616;SDS011;2321;42.704;23.384;2022-10-31T15:01:56;5.13;;;2.63;;
4616;SDS011;2321;42.704;23.384;2022-10-31T15:04:26;25.17;;;3.07;;
4616;SDS011;2321;42.704;23.384;2022-10-31T15:07:06;5.23;;;2.50;;
4616;SDS011;2321;42.704;23.384;2022-10-31T15:09:37;1.97;;;1.87;;
4616;SDS011;2321;42.704;23.384;2022-10-31T15:14:52;5.80;;;2.20;;
4616;SDS011;2321;42.704;23.384;2022-10-31T15:17:20;3.30;;;2.80;;
4616;SDS011;2321;42.704;23.384;2022-10-31T15:19:47;2.20;;;2.10;;
4616;SDS011;2321;42.704;23.384;2022-10-31T15:22:15;8.67;;;2.30;;
4616;SDS011;2321;42.704;23.384;2022-10-31T15:24:44;12.67;;;2.87;;
4616;SDS011;2321;42.704;23.384;2022-10-31T15:27:12;7.43;;;2.93;;
4616;SDS011;2321;42.704;23.384;2022-10-31T15:29:49;11.83;;;2.90;;
4616;SDS011;2321;42.704;23.384;2022-10-31T15:32:18;4.90;;;2.93;;
4616;SDS011;2321;42.704;23.384;2022-10-31T15:34:48;2.30;;;2.00;;
4616;SDS011;2321;42.704;23.384;2022-10-31T15:37:16;8.30;;;2.50;;